sensor_id;sensor_type;location;lat;lon;timestamp;P1;durP1;ratioP1;P2;durP2;ratioP2
38463;SDS011;24243;51.956;5.902;2023-03-20T00:00:16;6.15;;;3.70;;
38463;SDS011;24243;51.956;5.902;2023-03-20T00:02:42;6.45;;;3.78;;
38463;SDS011;24243;51.956;5.902;2023-03-20T00:05:15;6.75;;;3.75;;
38463;SDS011;24243;51.956;5.902;2023-03-20T00:07:46;6.50;;;3.72;;
38463;SDS011;24243;51.956;5.902;2023-03-20T00:10:13;6.53;;;3.85;;
38463;SDS011;24243;51.956;5.902;2023-03-20T00:12:40;5.75;;;3.78;;
38463;SDS011;24243;51.956;5.902;2023-03-20T00:15:15;6.93;;;3.85;;
38463;SDS011;24243;51.956;5.902;2023-03-20T00:17:56;6.40;;;4.00;;
38463;SDS011;24243;51.956;5.902;2023-03-20T00:20:22;4.88;;;3.60;;
38463;SDS011;24243;51.956;5.902;2023-03-20T00:22:48;5.85;;;3.97;;
38463;SDS011;24243;51.956;5.902;2023-03-20T00:25:16;4.85;;;3.47;;
38463;SDS011;24243;51.956;5.902;2023-03-20T00:27:46;5.43;;;3.42;;
38463;SDS011;24243;51.956;5.902;2023-03-20T00:30:19;5.40;;;3.55;;
38463;SDS011;24243;51.956;5.902;2023-03-20T00:32:48;5.35;;;3.45;;
38463;SDS011;24243;51.956;5.902;2023-03-20T00:35:22;6.22;;;3.80;;
38463;SDS011;24243;51.956;5.902;2023-03-20T00:37:51;5.65;;;3.17;;
38463;SDS011;24243;51.956;5.902;2023-03-20T00:40:18;5.03;;;3.35;;
38463;SDS011;24243;51.956;5.902;2023-03-20T00:42:45;5.35;;;3.50;;
38463;SDS011;24243;51.956;5.902;2023-03-20T00:45:15;5.05;;;3.30;;
38463;SDS011;24243;51.956;5.902;2023-03-20T00:47:45;5.47;;;3.35;;
38463;SDS011;24243;51.956;5.902;2023-03-20T00:50:21;5.75;;;3.17;;
38463;SDS011;24243;51.956;5.902;2023-03-20T00:52:56;5.07;;;3.10;;
38463;SDS011;24243;51.956;5.902;2023-03-20T00:55:23;4.47;;;2.83;;
38463;SDS011;24243;51.956;5.902;2023-03-20T00:57:55;4.95;;;2.70;;
38463;SDS011;24243;51.956;5.902;2023-03-20T01:03:24;5.32;;;3.22;;
38463;SDS011;24243;51.956;5.902;2023-03-20T01:05:50;4.70;;;2.92;;
38463;SDS011;24243;51.956;5.902;2023-03-20T01:08:20;4.85;;;3.00;;
38463;SDS011;24243;51.956;5.902;2023-03-20T01:10:50;4.63;;;3.20;;
38463;SDS011;24243;51.956;5.902;2023-03-20T01:13:21;4.15;;;2.65;;
38463;SDS011;24243;51.956;5.902;2023-03-20T01:15:52;5.43;;;2.92;;
38463;SDS011;24243;51.956;5.902;2023-03-20T01:18:20;5.90;;;3.17;;
38463;SDS011;24243;51.956;5.902;2023-03-20T01:20:47;5.38;;;2.80;;
38463;SDS011;24243;51.956;5.902;2023-03-20T01:23:14;5.20;;;3.28;;
38463;SDS011;24243;51.956;5.902;2023-03-20T01:25:40;5.07;;;3.08;;
38463;SDS011;24243;51.956;5.902;2023-03-20T01:28:16;5.18;;;2.80;;
38463;SDS011;24243;51.956;5.902;2023-03-20T01:30:44;5.38;;;3.40;;
38463;SDS011;24243;51.956;5.902;2023-03-20T01:33:15;4.38;;;2.70;;
38463;SDS011;24243;51.956;5.902;2023-03-20T01:35:46;4.88;;;2.53;;
38463;SDS011;24243;51.956;5.902;2023-03-20T01:38:14;4.05;;;2.30;;
38463;SDS011;24243;51.956;5.902;2023-03-20T01:40:53;4.00;;;2.45;;
38463;SDS011;24243;51.956;5.902;2023-03-20T01:43:24;3.17;;;2.22;;
38463;SDS011;24243;51.956;5.902;2023-03-20T01:51:14;5.78;;;2.30;;
38463;SDS011;24243;51.956;5.902;2023-03-20T01:53:41;5.63;;;2.70;;
38463;SDS011;24243;51.956;5.902;2023-03-20T01:56:09;3.83;;;2.40;;
38463;SDS011;24243;51.956;5.902;2023-03-20T01:58:40;4.35;;;2.60;;
38463;SDS011;24243;51.956;5.902;2023-03-20T02:01:13;4.50;;;2.38;;
38463;SDS011;24243;51.956;5.902;2023-03-20T02:03:41;3.53;;;2.22;;
38463;SDS011;24243;51.956;5.902;2023-03-20T02:06:09;3.55;;;2.08;;
38463;SDS011;24243;51.956;5.902;2023-03-20T02:08:36;3.28;;;2.03;;
38463;SDS011;24243;51.956;5.902;2023-03-20T02:11:08;3.33;;;2.10;;
38463;SDS011;24243;51.956;5.902;2023-03-20T02:13:35;3.72;;;2.50;;
38463;SDS011;24243;51.956;5.902;2023-03-20T02:16:12;3.55;;;2.10;;
38463;SDS011;24243;51.956;5.902;2023-03-20T02:18:40;3.65;;;1.92;;
38463;SDS011;24243;51.956;5.902;2023-03-20T02:40:03;2.83;;;1.75;;
38463;SDS011;24243;51.956;5.902;2023-03-20T02:59:27;3.10;;;1.80;;
38463;SDS011;24243;51.956;5.902;2023-03-20T03:02:06;3.22;;;1.60;;
38463;SDS011;24243;51.956;5.902;2023-03-20T03:04:35;2.90;;;1.50;;
38463;SDS011;24243;51.956;5.902;2023-03-20T03:07:06;2.13;;;1.65;;
38463;SDS011;24243;51.956;5.902;2023-03-20T03:09:49;3.25;;;1.40;;
38463;SDS011;24243;51.956;5.902;2023-03-20T03:12:22;2.63;;;1.52;;
38463;SDS011;24243;51.956;5.902;2023-03-20T03:14:54;3.40;;;1.98;;
38463;SDS011;24243;51.956;5.902;2023-03-20T03:17:25;3.35;;;1.48;;
38463;SDS011;24243;51.956;5.902;2023-03-20T03:19:56;2.45;;;1.33;;
38463;SDS011;24243;51.956;5.902;2023-03-20T03:22:25;4.07;;;1.67;;
38463;SDS011;24243;51.956;5.902;2023-03-20T03:24:51;2.53;;;1.40;;
38463;SDS011;24243;51.956;5.902;2023-03-20T03:27:19;2.97;;;1.98;;
38463;SDS011;24243;51.956;5.902;2023-03-20T03:29:53;2.88;;;1.52;;
38463;SDS011;24243;51.956;5.902;2023-03-20T03:32:31;2.55;;;1.50;;
38463;SDS011;24243;51.956;5.902;2023-03-20T03:35:03;3.33;;;1.80;;
38463;SDS011;24243;51.956;5.902;2023-03-20T03:40:47;2.17;;;1.60;;
38463;SDS011;24243;51.956;5.902;2023-03-20T03:43:00;2.45;;;1.35;;
38463;SDS011;24243;51.956;5.902;2023-03-20T03:45:37;2.57;;;1.40;;
38463;SDS011;24243;51.956;5.902;2023-03-20T03:48:25;2.53;;;1.40;;
38463;SDS011;24243;51.956;5.902;2023-03-20T03:50:56;2.70;;;1.58;;
38463;SDS011;24243;51.956;5.902;2023-03-20T03:53:31;2.08;;;1.02;;
38463;SDS011;24243;51.956;5.902;2023-03-20T03:56:05;1.98;;;1.48;;
38463;SDS011;24243;51.956;5.902;2023-03-20T03:58:41;2.55;;;1.42;;
38463;SDS011;24243;51.956;5.902;2023-03-20T04:01:10;2.47;;;1.42;;
38463;SDS011;24243;51.956;5.902;2023-03-20T04:03:39;2.47;;;1.45;;
38463;SDS011;24243;51.956;5.902;2023-03-20T04:06:08;2.47;;;1.38;;
38463;SDS011;24243;51.956;5.902;2023-03-20T04:08:39;2.80;;;1.42;;
38463;SDS011;24243;51.956;5.902;2023-03-20T04:11:05;1.73;;;1.15;;
38463;SDS011;24243;51.956;5.902;2023-03-20T04:13:36;3.47;;;1.65;;
38463;SDS011;24243;51.956;5.902;2023-03-20T04:16:02;2.63;;;1.30;;
38463;SDS011;24243;51.956;5.902;2023-03-20T04:18:28;2.25;;;1.10;;
38463;SDS011;24243;51.956;5.902;2023-03-20T04:20:53;2.08;;;1.40;;
38463;SDS011;24243;51.956;5.902;2023-03-20T04:23:19;2.10;;;1.20;;
38463;SDS011;24243;51.956;5.902;2023-03-20T04:25:45;2.35;;;1.20;;
38463;SDS011;24243;51.956;5.902;2023-03-20T04:28:11;1.85;;;1.15;;
38463;SDS011;24243;51.956;5.902;2023-03-20T04:30:40;2.28;;;1.23;;
38463;SDS011;24243;51.956;5.902;2023-03-20T04:33:08;2.17;;;1.30;;
38463;SDS011;24243;51.956;5.902;2023-03-20T04:35:34;2.65;;;1.42;;
38463;SDS011;24243;51.956;5.902;2023-03-20T04:37:59;2.55;;;1.30;;
38463;SDS011;24243;51.956;5.902;2023-03-20T04:40:25;1.83;;;1.25;;
38463;SDS011;24243;51.956;5.902;2023-03-20T04:42:51;2.83;;;1.20;;
38463;SDS011;24243;51.956;5.902;2023-03-20T04:45:17;2.53;;;1.33;;
38463;SDS011;24243;51.956;5.902;2023-03-20T04:47:42;2.75;;;1.42;;
38463;SDS011;24243;51.956;5.902;2023-03-20T04:50:08;2.95;;;1.60;;
38463;SDS011;24243;51.956;5.902;2023-03-20T04:52:34;2.70;;;1.42;;
38463;SDS011;24243;51.956;5.902;2023-03-20T04:55:00;1.73;;;1.00;;
38463;SDS011;24243;51.956;5.902;2023-03-20T04:57:26;2.55;;;1.60;;
38463;SDS011;24243;51.956;5.902;2023-03-20T04:59:52;2.65;;;1.55;;
38463;SDS011;24243;51.956;5.902;2023-03-20T05:02:18;2.30;;;1.35;;
38463;SDS011;24243;51.956;5.902;2023-03-20T05:04:43;1.98;;;1.00;;
38463;SDS011;24243;51.956;5.902;2023-03-20T05:07:09;2.13;;;1.00;;
38463;SDS011;24243;51.956;5.902;2023-03-20T05:09:35;2.42;;;1.17;;
38463;SDS011;24243;51.956;5.902;2023-03-20T05:12:01;2.25;;;1.23;;
38463;SDS011;24243;51.956;5.902;2023-03-20T05:14:26;2.38;;;1.08;;
38463;SDS011;24243;51.956;5.902;2023-03-20T05:16:52;2.50;;;1.38;;
38463;SDS011;24243;51.956;5.902;2023-03-20T05:19:18;2.03;;;1.27;;
38463;SDS011;24243;51.956;5.902;2023-03-20T05:21:43;1.73;;;1.30;;
38463;SDS011;24243;51.956;5.902;2023-03-20T05:24:09;2.08;;;1.20;;
38463;SDS011;24243;51.956;5.902;2023-03-20T05:26:35;2.67;;;1.30;;
38463;SDS011;24243;51.956;5.902;2023-03-20T05:29:00;2.42;;;1.13;;
38463;SDS011;24243;51.956;5.902;2023-03-20T05:31:26;1.85;;;1.23;;
38463;SDS011;24243;51.956;5.902;2023-03-20T05:33:52;2.50;;;1.17;;
38463;SDS011;24243;51.956;5.902;2023-03-20T05:36:17;1.35;;;1.00;;
38463;SDS011;24243;51.956;5.902;2023-03-20T05:38:43;1.33;;;1.00;;
38463;SDS011;24243;51.956;5.902;2023-03-20T05:41:09;3.10;;;1.48;;
38463;SDS011;24243;51.956;5.902;2023-03-20T05:43:35;2.25;;;1.20;;
38463;SDS011;24243;51.956;5.902;2023-03-20T05:46:00;1.73;;;1.10;;
38463;SDS011;24243;51.956;5.902;2023-03-20T05:48:26;2.88;;;1.40;;
38463;SDS011;24243;51.956;5.902;2023-03-20T05:50:52;2.40;;;1.40;;
38463;SDS011;24243;51.956;5.902;2023-03-20T05:53:18;1.75;;;0.88;;
38463;SDS011;24243;51.956;5.902;2023-03-20T05:55:43;1.52;;;0.90;;
38463;SDS011;24243;51.956;5.902;2023-03-20T05:58:10;2.33;;;1.30;;
38463;SDS011;24243;51.956;5.902;2023-03-20T06:00:36;2.25;;;1.05;;
38463;SDS011;24243;51.956;5.902;2023-03-20T06:03:03;1.98;;;1.10;;
38463;SDS011;24243;51.956;5.902;2023-03-20T06:05:31;2.20;;;1.10;;
38463;SDS011;24243;51.956;5.902;2023-03-20T06:07:57;2.70;;;1.05;;
38463;SDS011;24243;51.956;5.902;2023-03-20T06:10:23;1.50;;;0.77;;
38463;SDS011;24243;51.956;5.902;2023-03-20T06:12:49;2.55;;;1.00;;
38463;SDS011;24243;51.956;5.902;2023-03-20T06:15:15;2.05;;;1.08;;
38463;SDS011;24243;51.956;5.902;2023-03-20T06:17:40;1.50;;;1.10;;
38463;SDS011;24243;51.956;5.902;2023-03-20T06:20:07;1.92;;;1.13;;
38463;SDS011;24243;51.956;5.902;2023-03-20T06:22:33;1.67;;;1.13;;
38463;SDS011;24243;51.956;5.902;2023-03-20T06:24:59;1.98;;;0.77;;
38463;SDS011;24243;51.956;5.902;2023-03-20T06:27:25;2.00;;;1.20;;
38463;SDS011;24243;51.956;5.902;2023-03-20T06:29:51;1.63;;;1.05;;
38463;SDS011;24243;51.956;5.902;2023-03-20T06:32:17;2.42;;;1.20;;
38463;SDS011;24243;51.956;5.902;2023-03-20T06:34:43;1.80;;;1.20;;
38463;SDS011;24243;51.956;5.902;2023-03-20T06:37:08;2.05;;;1.10;;
38463;SDS011;24243;51.956;5.902;2023-03-20T06:39:34;2.08;;;0.85;;
38463;SDS011;24243;51.956;5.902;2023-03-20T06:42:01;2.83;;;0.95;;
38463;SDS011;24243;51.956;5.902;2023-03-20T06:44:27;1.50;;;0.95;;
38463;SDS011;24243;51.956;5.902;2023-03-20T06:46:52;1.70;;;1.00;;
38463;SDS011;24243;51.956;5.902;2023-03-20T06:49:18;2.40;;;1.00;;
38463;SDS011;24243;51.956;5.902;2023-03-20T06:51:44;1.70;;;1.00;;
38463;SDS011;24243;51.956;5.902;2023-03-20T06:54:11;1.20;;;0.80;;
38463;SDS011;24243;51.956;5.902;2023-03-20T06:56:37;2.85;;;1.05;;
38463;SDS011;24243;51.956;5.902;2023-03-20T06:59:03;1.67;;;0.93;;
38463;SDS011;24243;51.956;5.902;2023-03-20T07:01:29;1.45;;;0.90;;
38463;SDS011;24243;51.956;5.902;2023-03-20T07:03:54;1.80;;;1.08;;
38463;SDS011;24243;51.956;5.902;2023-03-20T07:06:20;2.35;;;1.00;;
38463;SDS011;24243;51.956;5.902;2023-03-20T07:08:47;2.13;;;1.00;;
38463;SDS011;24243;51.956;5.902;2023-03-20T07:11:12;3.75;;;1.65;;
38463;SDS011;24243;51.956;5.902;2023-03-20T07:13:38;2.83;;;1.38;;
38463;SDS011;24243;51.956;5.902;2023-03-20T07:16:04;1.67;;;0.80;;
38463;SDS011;24243;51.956;5.902;2023-03-20T07:18:31;1.90;;;0.95;;
38463;SDS011;24243;51.956;5.902;2023-03-20T07:20:58;1.40;;;0.95;;
38463;SDS011;24243;51.956;5.902;2023-03-20T07:23:26;1.80;;;1.08;;
38463;SDS011;24243;51.956;5.902;2023-03-20T07:25:53;1.63;;;0.80;;
38463;SDS011;24243;51.956;5.902;2023-03-20T07:28:19;2.15;;;0.90;;
38463;SDS011;24243;51.956;5.902;2023-03-20T07:30:44;1.27;;;0.70;;
38463;SDS011;24243;51.956;5.902;2023-03-20T07:33:10;2.25;;;1.05;;
38463;SDS011;24243;51.956;5.902;2023-03-20T07:35:36;1.55;;;0.93;;
38463;SDS011;24243;51.956;5.902;2023-03-20T07:38:03;1.65;;;0.80;;
38463;SDS011;24243;51.956;5.902;2023-03-20T07:40:30;1.35;;;0.93;;
38463;SDS011;24243;51.956;5.902;2023-03-20T07:42:56;1.40;;;0.63;;
38463;SDS011;24243;51.956;5.902;2023-03-20T07:45:22;1.63;;;0.80;;
38463;SDS011;24243;51.956;5.902;2023-03-20T07:47:48;1.40;;;0.80;;
38463;SDS011;24243;51.956;5.902;2023-03-20T07:50:14;1.33;;;0.82;;
38463;SDS011;24243;51.956;5.902;2023-03-20T07:52:40;1.75;;;1.00;;
38463;SDS011;24243;51.956;5.902;2023-03-20T07:55:10;1.60;;;1.02;;
38463;SDS011;24243;51.956;5.902;2023-03-20T07:57:35;1.35;;;0.77;;
38463;SDS011;24243;51.956;5.902;2023-03-20T08:00:02;1.65;;;0.80;;
38463;SDS011;24243;51.956;5.902;2023-03-20T08:02:28;2.17;;;1.00;;
38463;SDS011;24243;51.956;5.902;2023-03-20T08:04:54;1.92;;;1.20;;
38463;SDS011;24243;51.956;5.902;2023-03-20T08:07:19;1.73;;;0.80;;
38463;SDS011;24243;51.956;5.902;2023-03-20T08:09:45;1.55;;;0.82;;
38463;SDS011;24243;51.956;5.902;2023-03-20T08:12:11;1.10;;;0.70;;
38463;SDS011;24243;51.956;5.902;2023-03-20T08:14:37;1.75;;;0.90;;
38463;SDS011;24243;51.956;5.902;2023-03-20T08:17:03;2.67;;;1.10;;
38463;SDS011;24243;51.956;5.902;2023-03-20T08:19:29;2.00;;;1.05;;
38463;SDS011;24243;51.956;5.902;2023-03-20T08:21:55;1.27;;;0.80;;
38463;SDS011;24243;51.956;5.902;2023-03-20T08:24:20;1.65;;;0.90;;
38463;SDS011;24243;51.956;5.902;2023-03-20T08:26:46;0.95;;;0.52;;
38463;SDS011;24243;51.956;5.902;2023-03-20T08:29:12;1.75;;;0.90;;
38463;SDS011;24243;51.956;5.902;2023-03-20T08:34:06;1.17;;;0.68;;
38463;SDS011;24243;51.956;5.902;2023-03-20T08:36:32;1.83;;;0.63;;
38463;SDS011;24243;51.956;5.902;2023-03-20T08:38:58;1.35;;;0.88;;
38463;SDS011;24243;51.956;5.902;2023-03-20T08:41:24;1.45;;;0.70;;
38463;SDS011;24243;51.956;5.902;2023-03-20T08:43:49;1.67;;;0.80;;
38463;SDS011;24243;51.956;5.902;2023-03-20T08:46:15;3.47;;;0.82;;
38463;SDS011;24243;51.956;5.902;2023-03-20T08:48:41;1.40;;;0.80;;
38463;SDS011;24243;51.956;5.902;2023-03-20T08:51:06;1.33;;;0.65;;
38463;SDS011;24243;51.956;5.902;2023-03-20T08:53:32;2.85;;;0.98;;
38463;SDS011;24243;51.956;5.902;2023-03-20T08:55:58;2.15;;;0.68;;
38463;SDS011;24243;51.956;5.902;2023-03-20T08:58:24;1.80;;;0.80;;
38463;SDS011;24243;51.956;5.902;2023-03-20T09:00:50;1.58;;;0.73;;
38463;SDS011;24243;51.956;5.902;2023-03-20T09:03:17;1.67;;;0.85;;
38463;SDS011;24243;51.956;5.902;2023-03-20T09:05:44;0.90;;;0.57;;
38463;SDS011;24243;51.956;5.902;2023-03-20T09:08:11;1.15;;;0.60;;
38463;SDS011;24243;51.956;5.902;2023-03-20T09:10:37;1.48;;;0.80;;
38463;SDS011;24243;51.956;5.902;2023-03-20T09:13:04;1.63;;;0.68;;
38463;SDS011;24243;51.956;5.902;2023-03-20T09:15:30;0.98;;;0.60;;
38463;SDS011;24243;51.956;5.902;2023-03-20T09:17:56;1.67;;;0.70;;
38463;SDS011;24243;51.956;5.902;2023-03-20T09:20:22;1.52;;;0.90;;
38463;SDS011;24243;51.956;5.902;2023-03-20T09:22:48;1.65;;;0.80;;
38463;SDS011;24243;51.956;5.902;2023-03-20T09:25:13;1.08;;;0.68;;
38463;SDS011;24243;51.956;5.902;2023-03-20T09:27:39;1.20;;;0.60;;
38463;SDS011;24243;51.956;5.902;2023-03-20T09:30:06;1.23;;;0.63;;
38463;SDS011;24243;51.956;5.902;2023-03-20T09:32:33;2.10;;;0.90;;
38463;SDS011;24243;51.956;5.902;2023-03-20T09:34:59;1.88;;;1.05;;
38463;SDS011;24243;51.956;5.902;2023-03-20T09:37:25;0.95;;;0.50;;
38463;SDS011;24243;51.956;5.902;2023-03-20T09:39:52;1.10;;;0.68;;
38463;SDS011;24243;51.956;5.902;2023-03-20T09:45:11;1.13;;;0.50;;
38463;SDS011;24243;51.956;5.902;2023-03-20T09:47:57;1.55;;;0.70;;
38463;SDS011;24243;51.956;5.902;2023-03-20T09:50:42;1.25;;;0.60;;
38463;SDS011;24243;51.956;5.902;2023-03-20T09:56:03;2.45;;;0.90;;
38463;SDS011;24243;51.956;5.902;2023-03-20T09:58:33;1.52;;;0.43;;
38463;SDS011;24243;51.956;5.902;2023-03-20T10:01:02;1.85;;;0.77;;
38463;SDS011;24243;51.956;5.902;2023-03-20T10:03:47;1.30;;;0.50;;
38463;SDS011;24243;51.956;5.902;2023-03-20T10:06:17;1.60;;;0.57;;
38463;SDS011;24243;51.956;5.902;2023-03-20T10:08:43;2.85;;;0.60;;
38463;SDS011;24243;51.956;5.902;2023-03-20T10:18:39;1.50;;;0.60;;
38463;SDS011;24243;51.956;5.902;2023-03-20T10:21:17;1.10;;;0.60;;
38463;SDS011;24243;51.956;5.902;2023-03-20T10:26:21;1.08;;;0.40;;
38463;SDS011;24243;51.956;5.902;2023-03-20T10:28:56;1.05;;;0.50;;
38463;SDS011;24243;51.956;5.902;2023-03-20T10:31:28;2.05;;;0.57;;
38463;SDS011;24243;51.956;5.902;2023-03-20T10:34:17;0.65;;;0.47;;
38463;SDS011;24243;51.956;5.902;2023-03-20T10:42:12;1.05;;;0.50;;
38463;SDS011;24243;51.956;5.902;2023-03-20T10:44:45;1.80;;;0.55;;
38463;SDS011;24243;51.956;5.902;2023-03-20T10:47:17;0.85;;;0.50;;
38463;SDS011;24243;51.956;5.902;2023-03-20T10:50:06;0.90;;;0.60;;
38463;SDS011;24243;51.956;5.902;2023-03-20T10:52:38;1.10;;;0.55;;
38463;SDS011;24243;51.956;5.902;2023-03-20T10:55:07;1.00;;;0.50;;
38463;SDS011;24243;51.956;5.902;2023-03-20T10:57:52;1.50;;;0.60;;
38463;SDS011;24243;51.956;5.902;2023-03-20T11:00:22;1.30;;;0.77;;
38463;SDS011;24243;51.956;5.902;2023-03-20T11:02:51;1.27;;;0.60;;
38463;SDS011;24243;51.956;5.902;2023-03-20T11:05:21;1.73;;;0.52;;
38463;SDS011;24243;51.956;5.902;2023-03-20T11:08:02;1.30;;;0.52;;
38463;SDS011;24243;51.956;5.902;2023-03-20T11:10:32;1.35;;;0.60;;
38463;SDS011;24243;51.956;5.902;2023-03-20T11:13:22;1.23;;;0.52;;
38463;SDS011;24243;51.956;5.902;2023-03-20T11:16:07;0.98;;;0.50;;
38463;SDS011;24243;51.956;5.902;2023-03-20T11:18:42;0.73;;;0.50;;
38463;SDS011;24243;51.956;5.902;2023-03-20T11:21:16;1.05;;;0.45;;
38463;SDS011;24243;51.956;5.902;2023-03-20T11:23:50;1.33;;;0.60;;
38463;SDS011;24243;51.956;5.902;2023-03-20T11:26:18;1.17;;;0.50;;
38463;SDS011;24243;51.956;5.902;2023-03-20T11:29:01;1.50;;;0.43;;
38463;SDS011;24243;51.956;5.902;2023-03-20T11:31:35;1.05;;;0.50;;
38463;SDS011;24243;51.956;5.902;2023-03-20T11:34:08;0.88;;;0.40;;
38463;SDS011;24243;51.956;5.902;2023-03-20T11:36:52;1.20;;;0.70;;
38463;SDS011;24243;51.956;5.902;2023-03-20T11:39:27;0.80;;;0.40;;
38463;SDS011;24243;51.956;5.902;2023-03-20T11:41:57;1.10;;;0.50;;
38463;SDS011;24243;51.956;5.902;2023-03-20T11:44:32;1.75;;;0.68;;
38463;SDS011;24243;51.956;5.902;2023-03-20T11:47:04;1.45;;;0.60;;
38463;SDS011;24243;51.956;5.902;2023-03-20T11:49:46;0.80;;;0.50;;
38463;SDS011;24243;51.956;5.902;2023-03-20T11:52:19;0.77;;;0.35;;
38463;SDS011;24243;51.956;5.902;2023-03-20T11:54:51;0.88;;;0.57;;
38463;SDS011;24243;51.956;5.902;2023-03-20T11:59:59;0.85;;;0.60;;
38463;SDS011;24243;51.956;5.902;2023-03-20T12:02:41;0.93;;;0.45;;
38463;SDS011;24243;51.956;5.902;2023-03-20T12:05:28;0.82;;;0.47;;
38463;SDS011;24243;51.956;5.902;2023-03-20T12:07:55;1.58;;;0.50;;
38463;SDS011;24243;51.956;5.902;2023-03-20T12:10:26;1.23;;;0.75;;
38463;SDS011;24243;51.956;5.902;2023-03-20T12:12:58;0.55;;;0.32;;
38463;SDS011;24243;51.956;5.902;2023-03-20T12:15:30;1.40;;;0.50;;
38463;SDS011;24243;51.956;5.902;2023-03-20T12:35:19;1.58;;;0.50;;
38463;SDS011;24243;51.956;5.902;2023-03-20T12:37:52;0.87;;;0.43;;
38463;SDS011;24243;51.956;5.902;2023-03-20T12:40:18;0.77;;;0.50;;
38463;SDS011;24243;51.956;5.902;2023-03-20T12:43:02;0.60;;;0.30;;
38463;SDS011;24243;51.956;5.902;2023-03-20T12:45:37;1.00;;;0.50;;
38463;SDS011;24243;51.956;5.902;2023-03-20T12:54:04;0.80;;;0.40;;
38463;SDS011;24243;51.956;5.902;2023-03-20T12:57:02;1.30;;;0.60;;
38463;SDS011;24243;51.956;5.902;2023-03-20T13:10:38;2.35;;;0.70;;
38463;SDS011;24243;51.956;5.902;2023-03-20T13:30:18;1.23;;;0.60;;
38463;SDS011;24243;51.956;5.902;2023-03-20T13:35:22;1.98;;;0.75;;
38463;SDS011;24243;51.956;5.902;2023-03-20T13:37:55;1.40;;;0.50;;
38463;SDS011;24243;51.956;5.902;2023-03-20T13:40:25;1.15;;;0.40;;
38463;SDS011;24243;51.956;5.902;2023-03-20T13:43:18;1.02;;;0.45;;
38463;SDS011;24243;51.956;5.902;2023-03-20T13:48:37;1.25;;;0.50;;
38463;SDS011;24243;51.956;5.902;2023-03-20T13:59:36;0.75;;;0.40;;
38463;SDS011;24243;51.956;5.902;2023-03-20T14:05:16;1.35;;;0.60;;
38463;SDS011;24243;51.956;5.902;2023-03-20T14:07:46;1.67;;;0.75;;
38463;SDS011;24243;51.956;5.902;2023-03-20T14:12:55;0.73;;;0.43;;
38463;SDS011;24243;51.956;5.902;2023-03-20T14:15:25;1.48;;;0.50;;
38463;SDS011;24243;51.956;5.902;2023-03-20T14:17:56;0.70;;;0.50;;
38463;SDS011;24243;51.956;5.902;2023-03-20T14:20:28;0.90;;;0.43;;
38463;SDS011;24243;51.956;5.902;2023-03-20T14:22:57;1.02;;;0.50;;
38463;SDS011;24243;51.956;5.902;2023-03-20T14:25:23;0.82;;;0.50;;
38463;SDS011;24243;51.956;5.902;2023-03-20T14:27:56;1.95;;;0.57;;
38463;SDS011;24243;51.956;5.902;2023-03-20T14:30:46;0.90;;;0.40;;
38463;SDS011;24243;51.956;5.902;2023-03-20T14:35:42;0.50;;;0.30;;
38463;SDS011;24243;51.956;5.902;2023-03-20T14:41:46;0.60;;;0.40;;
38463;SDS011;24243;51.956;5.902;2023-03-20T14:49:35;1.08;;;0.40;;
38463;SDS011;24243;51.956;5.902;2023-03-20T14:54:52;3.22;;;0.40;;
38463;SDS011;24243;51.956;5.902;2023-03-20T14:57:25;0.70;;;0.40;;
38463;SDS011;24243;51.956;5.902;2023-03-20T14:59:55;0.88;;;0.60;;
38463;SDS011;24243;51.956;5.902;2023-03-20T15:02:23;1.63;;;0.63;;
38463;SDS011;24243;51.956;5.902;2023-03-20T15:04:50;1.25;;;0.55;;
38463;SDS011;24243;51.956;5.902;2023-03-20T15:07:16;1.23;;;0.40;;
38463;SDS011;24243;51.956;5.902;2023-03-20T15:09:51;1.33;;;0.50;;
38463;SDS011;24243;51.956;5.902;2023-03-20T15:12:20;1.65;;;0.40;;
38463;SDS011;24243;51.956;5.902;2023-03-20T15:17:23;0.75;;;0.45;;
38463;SDS011;24243;51.956;5.902;2023-03-20T15:22:55;1.50;;;0.63;;
38463;SDS011;24243;51.956;5.902;2023-03-20T15:25:26;1.13;;;0.40;;
38463;SDS011;24243;51.956;5.902;2023-03-20T15:27:57;1.40;;;0.50;;
38463;SDS011;24243;51.956;5.902;2023-03-20T15:30:23;1.25;;;0.52;;
38463;SDS011;24243;51.956;5.902;2023-03-20T15:32:52;1.45;;;0.50;;
38463;SDS011;24243;51.956;5.902;2023-03-20T15:35:19;1.23;;;0.50;;
38463;SDS011;24243;51.956;5.902;2023-03-20T15:37:48;1.35;;;0.40;;
38463;SDS011;24243;51.956;5.902;2023-03-20T15:40:25;1.30;;;0.60;;
38463;SDS011;24243;51.956;5.902;2023-03-20T15:48:00;1.48;;;0.40;;
38463;SDS011;24243;51.956;5.902;2023-03-20T15:50:36;1.42;;;0.65;;
38463;SDS011;24243;51.956;5.902;2023-03-20T15:53:07;2.05;;;0.47;;
38463;SDS011;24243;51.956;5.902;2023-03-20T15:55:37;2.40;;;0.77;;
38463;SDS011;24243;51.956;5.902;2023-03-20T15:58:03;2.05;;;0.70;;
38463;SDS011;24243;51.956;5.902;2023-03-20T16:00:30;1.58;;;0.40;;
38463;SDS011;24243;51.956;5.902;2023-03-20T16:02:58;1.23;;;0.75;;
38463;SDS011;24243;51.956;5.902;2023-03-20T16:05:29;0.90;;;0.40;;
38463;SDS011;24243;51.956;5.902;2023-03-20T16:07:55;1.45;;;0.57;;
38463;SDS011;24243;51.956;5.902;2023-03-20T16:10:29;1.88;;;0.65;;
38463;SDS011;24243;51.956;5.902;2023-03-20T16:12:59;1.47;;;0.73;;
38463;SDS011;24243;51.956;5.902;2023-03-20T16:15:27;1.60;;;0.70;;
38463;SDS011;24243;51.956;5.902;2023-03-20T16:17:56;1.27;;;0.60;;
38463;SDS011;24243;51.956;5.902;2023-03-20T16:22:51;1.20;;;0.50;;
38463;SDS011;24243;51.956;5.902;2023-03-20T16:25:20;0.82;;;0.60;;
38463;SDS011;24243;51.956;5.902;2023-03-20T16:27:48;1.65;;;0.60;;
38463;SDS011;24243;51.956;5.902;2023-03-20T16:30:18;1.10;;;0.60;;
38463;SDS011;24243;51.956;5.902;2023-03-20T16:32:49;1.95;;;0.70;;
38463;SDS011;24243;51.956;5.902;2023-03-20T16:35:26;1.55;;;0.55;;
38463;SDS011;24243;51.956;5.902;2023-03-20T16:37:57;1.45;;;0.63;;
38463;SDS011;24243;51.956;5.902;2023-03-20T16:43:31;0.75;;;0.50;;
38463;SDS011;24243;51.956;5.902;2023-03-20T16:45:54;1.90;;;0.70;;
38463;SDS011;24243;51.956;5.902;2023-03-20T16:48:30;2.33;;;0.68;;
38463;SDS011;24243;51.956;5.902;2023-03-20T16:50:57;1.63;;;0.85;;
38463;SDS011;24243;51.956;5.902;2023-03-20T16:53:39;2.75;;;0.90;;
38463;SDS011;24243;51.956;5.902;2023-03-20T16:56:12;2.80;;;0.80;;
38463;SDS011;24243;51.956;5.902;2023-03-20T16:58:50;4.10;;;0.93;;
38463;SDS011;24243;51.956;5.902;2023-03-20T17:01:20;2.83;;;0.88;;
38463;SDS011;24243;51.956;5.902;2023-03-20T17:03:48;1.75;;;0.70;;
38463;SDS011;24243;51.956;5.902;2023-03-20T17:08:55;1.88;;;0.73;;
38463;SDS011;24243;51.956;5.902;2023-03-20T17:11:36;1.58;;;0.68;;
38463;SDS011;24243;51.956;5.902;2023-03-20T17:14:03;1.52;;;0.68;;
38463;SDS011;24243;51.956;5.902;2023-03-20T17:16:29;1.98;;;0.50;;
38463;SDS011;24243;51.956;5.902;2023-03-20T17:19:16;2.67;;;0.93;;
38463;SDS011;24243;51.956;5.902;2023-03-20T17:21:43;5.38;;;1.98;;
38463;SDS011;24243;51.956;5.902;2023-03-20T17:24:10;6.68;;;2.83;;
38463;SDS011;24243;51.956;5.902;2023-03-20T17:26:38;9.13;;;3.03;;
38463;SDS011;24243;51.956;5.902;2023-03-20T17:29:05;11.02;;;4.57;;
38463;SDS011;24243;51.956;5.902;2023-03-20T17:31:31;10.75;;;4.38;;
38463;SDS011;24243;51.956;5.902;2023-03-20T17:33:57;11.88;;;4.25;;
38463;SDS011;24243;51.956;5.902;2023-03-20T17:36:23;11.57;;;4.75;;
38463;SDS011;24243;51.956;5.902;2023-03-20T17:38:54;14.00;;;4.75;;
38463;SDS011;24243;51.956;5.902;2023-03-20T17:41:21;10.85;;;3.97;;
38463;SDS011;24243;51.956;5.902;2023-03-20T17:43:48;12.07;;;4.00;;
38463;SDS011;24243;51.956;5.902;2023-03-20T17:46:16;12.00;;;4.57;;
38463;SDS011;24243;51.956;5.902;2023-03-20T17:48:44;15.45;;;5.35;;
38463;SDS011;24243;51.956;5.902;2023-03-20T17:51:11;11.48;;;4.22;;
38463;SDS011;24243;51.956;5.902;2023-03-20T17:53:37;9.27;;;4.20;;
38463;SDS011;24243;51.956;5.902;2023-03-20T17:56:04;13.20;;;4.55;;
38463;SDS011;24243;51.956;5.902;2023-03-20T17:58:37;10.07;;;4.00;;